Terminal Aerodrome Forecast
Issued by NWS Grand Forks, ND

Home | Current Version | Previous Version | Text Only | Print | Product List | Glossary Off
Versions: 1 2 3 4 5 6 7 8 9 10 11 12

341
FTUS43 KFGF 280522
TAFFAR
TAF
KFAR 280522Z 2806/2906 33006KT P6SM SCT035
     FM281600 34010KT P6SM FEW200=

USA.gov is the U.S. government's official web portal to all federal, state and local government web resources and services.